sensor_id;sensor_type;location;lat;lon;timestamp;P1;durP1;ratioP1;P2;durP2;ratioP2
42384;SDS011;28042;43.986;22.860;2022-11-15T00:00:02;34.35;;;19.33;;
42384;SDS011;28042;43.986;22.860;2022-11-15T00:02:28;38.33;;;19.02;;
42384;SDS011;28042;43.986;22.860;2022-11-15T00:04:54;38.15;;;19.95;;
42384;SDS011;28042;43.986;22.860;2022-11-15T00:07:19;37.35;;;18.73;;
42384;SDS011;28042;43.986;22.860;2022-11-15T00:09:45;34.95;;;19.77;;
42384;SDS011;28042;43.986;22.860;2022-11-15T00:12:10;34.80;;;19.38;;
42384;SDS011;28042;43.986;22.860;2022-11-15T00:14:36;35.83;;;19.80;;
42384;SDS011;28042;43.986;22.860;2022-11-15T00:17:01;30.33;;;17.05;;
42384;SDS011;28042;43.986;22.860;2022-11-15T00:19:27;29.13;;;17.30;;
42384;SDS011;28042;43.986;22.860;2022-11-15T00:21:52;31.08;;;17.70;;
42384;SDS011;28042;43.986;22.860;2022-11-15T00:24:17;29.50;;;17.20;;
42384;SDS011;28042;43.986;22.860;2022-11-15T00:26:43;29.67;;;16.95;;
42384;SDS011;28042;43.986;22.860;2022-11-15T00:29:08;31.25;;;17.23;;
42384;SDS011;28042;43.986;22.860;2022-11-15T00:31:34;28.77;;;17.70;;
42384;SDS011;28042;43.986;22.860;2022-11-15T00:33:59;31.40;;;17.08;;
42384;SDS011;28042;43.986;22.860;2022-11-15T00:36:25;29.05;;;17.33;;
42384;SDS011;28042;43.986;22.860;2022-11-15T00:38:50;31.75;;;16.67;;
42384;SDS011;28042;43.986;22.860;2022-11-15T00:41:16;26.27;;;15.50;;
42384;SDS011;28042;43.986;22.860;2022-11-15T00:43:41;28.83;;;15.82;;
42384;SDS011;28042;43.986;22.860;2022-11-15T00:46:08;29.80;;;16.70;;
42384;SDS011;28042;43.986;22.860;2022-11-15T00:48:35;30.85;;;16.15;;
42384;SDS011;28042;43.986;22.860;2022-11-15T00:51:01;32.17;;;17.08;;
42384;SDS011;28042;43.986;22.860;2022-11-15T00:53:26;30.10;;;16.95;;
42384;SDS011;28042;43.986;22.860;2022-11-15T00:55:52;35.65;;;17.95;;
42384;SDS011;28042;43.986;22.860;2022-11-15T00:58:18;29.88;;;17.42;;
42384;SDS011;28042;43.986;22.860;2022-11-15T01:00:43;28.45;;;17.60;;
42384;SDS011;28042;43.986;22.860;2022-11-15T01:03:09;33.45;;;17.60;;
42384;SDS011;28042;43.986;22.860;2022-11-15T01:05:36;29.75;;;16.83;;
42384;SDS011;28042;43.986;22.860;2022-11-15T01:08:03;28.30;;;16.42;;
42384;SDS011;28042;43.986;22.860;2022-11-15T01:10:29;31.00;;;17.33;;
42384;SDS011;28042;43.986;22.860;2022-11-15T01:12:54;32.67;;;16.85;;
42384;SDS011;28042;43.986;22.860;2022-11-15T01:15:19;29.55;;;17.75;;
42384;SDS011;28042;43.986;22.860;2022-11-15T01:17:45;30.40;;;17.10;;
42384;SDS011;28042;43.986;22.860;2022-11-15T01:20:11;32.97;;;17.73;;
42384;SDS011;28042;43.986;22.860;2022-11-15T01:22:36;30.50;;;17.52;;
42384;SDS011;28042;43.986;22.860;2022-11-15T01:25:02;31.50;;;18.02;;
42384;SDS011;28042;43.986;22.860;2022-11-15T01:27:28;31.25;;;17.67;;
42384;SDS011;28042;43.986;22.860;2022-11-15T01:29:53;29.85;;;17.90;;
42384;SDS011;28042;43.986;22.860;2022-11-15T01:32:19;32.85;;;18.15;;
42384;SDS011;28042;43.986;22.860;2022-11-15T01:34:44;31.20;;;16.83;;
42384;SDS011;28042;43.986;22.860;2022-11-15T01:37:09;31.33;;;17.25;;
42384;SDS011;28042;43.986;22.860;2022-11-15T01:39:35;30.08;;;17.00;;
42384;SDS011;28042;43.986;22.860;2022-11-15T01:42:00;28.85;;;17.35;;
42384;SDS011;28042;43.986;22.860;2022-11-15T01:47:15;31.15;;;17.70;;
42384;SDS011;28042;43.986;22.860;2022-11-15T01:49:48;31.25;;;17.98;;
42384;SDS011;28042;43.986;22.860;2022-11-15T01:52:23;28.75;;;17.80;;
42384;SDS011;28042;43.986;22.860;2022-11-15T01:54:52;31.95;;;17.70;;
42384;SDS011;28042;43.986;22.860;2022-11-15T01:57:21;27.42;;;17.58;;
42384;SDS011;28042;43.986;22.860;2022-11-15T01:59:47;31.70;;;17.77;;
42384;SDS011;28042;43.986;22.860;2022-11-15T02:02:13;29.08;;;17.33;;
42384;SDS011;28042;43.986;22.860;2022-11-15T02:04:42;31.02;;;17.55;;
42384;SDS011;28042;43.986;22.860;2022-11-15T02:07:11;30.67;;;17.10;;
42384;SDS011;28042;43.986;22.860;2022-11-15T02:09:38;31.27;;;16.88;;
42384;SDS011;28042;43.986;22.860;2022-11-15T02:12:05;24.67;;;16.17;;
42384;SDS011;28042;43.986;22.860;2022-11-15T02:14:33;27.15;;;16.63;;
42384;SDS011;28042;43.986;22.860;2022-11-15T02:25:15;28.73;;;17.30;;
42384;SDS011;28042;43.986;22.860;2022-11-15T02:28:06;26.30;;;16.33;;
42384;SDS011;28042;43.986;22.860;2022-11-15T02:33:16;35.25;;;20.25;;
42384;SDS011;28042;43.986;22.860;2022-11-15T02:41:58;32.97;;;19.40;;
42384;SDS011;28042;43.986;22.860;2022-11-15T02:44:32;33.03;;;18.77;;
42384;SDS011;28042;43.986;22.860;2022-11-15T02:47:06;30.52;;;17.88;;
42384;SDS011;28042;43.986;22.860;2022-11-15T02:49:38;31.13;;;18.92;;
42384;SDS011;28042;43.986;22.860;2022-11-15T02:52:06;30.70;;;18.80;;
42384;SDS011;28042;43.986;22.860;2022-11-15T02:54:33;32.28;;;19.42;;
42384;SDS011;28042;43.986;22.860;2022-11-15T02:57:07;35.28;;;19.33;;
42384;SDS011;28042;43.986;22.860;2022-11-15T02:59:56;29.13;;;18.27;;
42384;SDS011;28042;43.986;22.860;2022-11-15T03:08:10;35.45;;;17.63;;
42384;SDS011;28042;43.986;22.860;2022-11-15T03:10:45;35.28;;;19.17;;
42384;SDS011;28042;43.986;22.860;2022-11-15T03:13:23;29.52;;;18.40;;
42384;SDS011;28042;43.986;22.860;2022-11-15T03:18:37;31.20;;;17.30;;
42384;SDS011;28042;43.986;22.860;2022-11-15T03:21:06;32.55;;;17.70;;
42384;SDS011;28042;43.986;22.860;2022-11-15T03:23:35;32.03;;;19.00;;
42384;SDS011;28042;43.986;22.860;2022-11-15T03:26:02;36.60;;;18.73;;
42384;SDS011;28042;43.986;22.860;2022-11-15T03:28:39;31.50;;;17.65;;
42384;SDS011;28042;43.986;22.860;2022-11-15T03:31:20;29.40;;;17.55;;
42384;SDS011;28042;43.986;22.860;2022-11-15T03:34:07;34.33;;;18.20;;
42384;SDS011;28042;43.986;22.860;2022-11-15T03:36:38;32.55;;;18.20;;
42384;SDS011;28042;43.986;22.860;2022-11-15T03:39:05;31.30;;;19.10;;
42384;SDS011;28042;43.986;22.860;2022-11-15T03:41:37;31.88;;;18.02;;
42384;SDS011;28042;43.986;22.860;2022-11-15T03:46:56;34.63;;;18.80;;
42384;SDS011;28042;43.986;22.860;2022-11-15T03:49:49;35.03;;;18.48;;
42384;SDS011;28042;43.986;22.860;2022-11-15T03:52:19;31.73;;;18.77;;
42384;SDS011;28042;43.986;22.860;2022-11-15T03:54:49;33.05;;;18.15;;
42384;SDS011;28042;43.986;22.860;2022-11-15T03:57:20;31.48;;;18.23;;
42384;SDS011;28042;43.986;22.860;2022-11-15T03:59:45;36.30;;;19.90;;
42384;SDS011;28042;43.986;22.860;2022-11-15T04:02:11;36.33;;;20.35;;
42384;SDS011;28042;43.986;22.860;2022-11-15T04:04:38;34.15;;;20.25;;
42384;SDS011;28042;43.986;22.860;2022-11-15T04:07:04;36.60;;;20.52;;
42384;SDS011;28042;43.986;22.860;2022-11-15T04:09:29;45.13;;;23.95;;
42384;SDS011;28042;43.986;22.860;2022-11-15T04:11:54;36.63;;;22.55;;
42384;SDS011;28042;43.986;22.860;2022-11-15T04:14:20;39.20;;;21.75;;
42384;SDS011;28042;43.986;22.860;2022-11-15T04:16:46;42.97;;;25.70;;
42384;SDS011;28042;43.986;22.860;2022-11-15T04:19:11;47.13;;;26.05;;
42384;SDS011;28042;43.986;22.860;2022-11-15T04:21:55;45.38;;;24.92;;
42384;SDS011;28042;43.986;22.860;2022-11-15T04:24:39;41.75;;;23.30;;
42384;SDS011;28042;43.986;22.860;2022-11-15T04:27:04;51.70;;;29.73;;
42384;SDS011;28042;43.986;22.860;2022-11-15T04:29:30;64.80;;;35.30;;
42384;SDS011;28042;43.986;22.860;2022-11-15T04:32:05;44.50;;;23.95;;
42384;SDS011;28042;43.986;22.860;2022-11-15T04:34:31;58.53;;;29.45;;
42384;SDS011;28042;43.986;22.860;2022-11-15T04:36:58;54.63;;;28.52;;
42384;SDS011;28042;43.986;22.860;2022-11-15T04:39:40;50.78;;;30.27;;
42384;SDS011;28042;43.986;22.860;2022-11-15T04:42:07;41.75;;;26.85;;
42384;SDS011;28042;43.986;22.860;2022-11-15T04:44:32;53.85;;;33.38;;
42384;SDS011;28042;43.986;22.860;2022-11-15T04:46:58;41.47;;;25.35;;
42384;SDS011;28042;43.986;22.860;2022-11-15T04:49:23;43.22;;;25.70;;
42384;SDS011;28042;43.986;22.860;2022-11-15T04:51:49;44.65;;;23.92;;
42384;SDS011;28042;43.986;22.860;2022-11-15T04:54:14;37.65;;;24.00;;
42384;SDS011;28042;43.986;22.860;2022-11-15T04:56:40;36.80;;;18.80;;
42384;SDS011;28042;43.986;22.860;2022-11-15T04:59:05;36.35;;;18.95;;
42384;SDS011;28042;43.986;22.860;2022-11-15T05:01:31;32.13;;;18.80;;
42384;SDS011;28042;43.986;22.860;2022-11-15T05:03:56;39.13;;;22.92;;
42384;SDS011;28042;43.986;22.860;2022-11-15T05:06:40;55.45;;;32.97;;
42384;SDS011;28042;43.986;22.860;2022-11-15T05:09:06;48.55;;;27.00;;
42384;SDS011;28042;43.986;22.860;2022-11-15T05:11:31;48.55;;;26.88;;
42384;SDS011;28042;43.986;22.860;2022-11-15T05:13:57;46.50;;;24.40;;
42384;SDS011;28042;43.986;22.860;2022-11-15T05:16:22;62.97;;;34.45;;
42384;SDS011;28042;43.986;22.860;2022-11-15T05:18:53;52.42;;;27.35;;
42384;SDS011;28042;43.986;22.860;2022-11-15T05:21:19;52.60;;;26.92;;
42384;SDS011;28042;43.986;22.860;2022-11-15T05:23:45;50.63;;;27.30;;
42384;SDS011;28042;43.986;22.860;2022-11-15T05:26:11;51.60;;;29.27;;
42384;SDS011;28042;43.986;22.860;2022-11-15T05:28:37;78.13;;;40.25;;
42384;SDS011;28042;43.986;22.860;2022-11-15T05:31:03;103.38;;;45.92;;
42384;SDS011;28042;43.986;22.860;2022-11-15T05:33:30;92.13;;;43.58;;
42384;SDS011;28042;43.986;22.860;2022-11-15T05:36:01;61.58;;;31.38;;
42384;SDS011;28042;43.986;22.860;2022-11-15T05:38:30;136.07;;;68.72;;
42384;SDS011;28042;43.986;22.860;2022-11-15T05:40:56;106.85;;;55.45;;
42384;SDS011;28042;43.986;22.860;2022-11-15T05:43:22;60.42;;;35.83;;
42384;SDS011;28042;43.986;22.860;2022-11-15T05:45:48;50.25;;;30.38;;
42384;SDS011;28042;43.986;22.860;2022-11-15T05:48:14;52.72;;;29.13;;
42384;SDS011;28042;43.986;22.860;2022-11-15T05:50:41;59.58;;;32.15;;
42384;SDS011;28042;43.986;22.860;2022-11-15T05:53:11;64.88;;;33.15;;
42384;SDS011;28042;43.986;22.860;2022-11-15T05:55:40;66.90;;;35.25;;
42384;SDS011;28042;43.986;22.860;2022-11-15T05:58:06;50.15;;;28.98;;
42384;SDS011;28042;43.986;22.860;2022-11-15T06:00:32;59.83;;;32.53;;
42384;SDS011;28042;43.986;22.860;2022-11-15T06:02:58;58.75;;;30.35;;
42384;SDS011;28042;43.986;22.860;2022-11-15T06:05:23;47.30;;;25.33;;
42384;SDS011;28042;43.986;22.860;2022-11-15T06:07:49;45.47;;;27.40;;
42384;SDS011;28042;43.986;22.860;2022-11-15T06:10:14;55.63;;;29.17;;
42384;SDS011;28042;43.986;22.860;2022-11-15T06:12:40;49.20;;;24.63;;
42384;SDS011;28042;43.986;22.860;2022-11-15T06:15:05;46.97;;;26.33;;
42384;SDS011;28042;43.986;22.860;2022-11-15T06:17:31;51.40;;;25.83;;
42384;SDS011;28042;43.986;22.860;2022-11-15T06:19:57;49.47;;;27.98;;
42384;SDS011;28042;43.986;22.860;2022-11-15T06:22:22;50.28;;;28.88;;
42384;SDS011;28042;43.986;22.860;2022-11-15T06:24:47;50.97;;;28.52;;
42384;SDS011;28042;43.986;22.860;2022-11-15T06:27:13;45.53;;;26.77;;
42384;SDS011;28042;43.986;22.860;2022-11-15T06:29:39;45.00;;;25.88;;
42384;SDS011;28042;43.986;22.860;2022-11-15T06:32:05;46.67;;;26.00;;
42384;SDS011;28042;43.986;22.860;2022-11-15T06:34:30;45.03;;;22.63;;
42384;SDS011;28042;43.986;22.860;2022-11-15T06:36:56;45.58;;;23.13;;
42384;SDS011;28042;43.986;22.860;2022-11-15T06:39:21;40.20;;;22.25;;
42384;SDS011;28042;43.986;22.860;2022-11-15T06:41:46;37.70;;;22.38;;
42384;SDS011;28042;43.986;22.860;2022-11-15T06:44:12;45.20;;;24.05;;
42384;SDS011;28042;43.986;22.860;2022-11-15T06:46:37;44.05;;;23.73;;
42384;SDS011;28042;43.986;22.860;2022-11-15T06:49:03;36.47;;;22.23;;
42384;SDS011;28042;43.986;22.860;2022-11-15T06:51:28;47.10;;;24.90;;
42384;SDS011;28042;43.986;22.860;2022-11-15T06:53:54;51.00;;;27.25;;
42384;SDS011;28042;43.986;22.860;2022-11-15T06:56:19;46.63;;;24.52;;
42384;SDS011;28042;43.986;22.860;2022-11-15T06:58:45;42.03;;;23.17;;
42384;SDS011;28042;43.986;22.860;2022-11-15T07:01:11;43.03;;;22.73;;
42384;SDS011;28042;43.986;22.860;2022-11-15T07:03:38;42.43;;;23.37;;
42384;SDS011;28042;43.986;22.860;2022-11-15T07:06:05;39.28;;;23.02;;
42384;SDS011;28042;43.986;22.860;2022-11-15T07:08:31;43.92;;;23.02;;
42384;SDS011;28042;43.986;22.860;2022-11-15T07:10:58;43.35;;;23.70;;
42384;SDS011;28042;43.986;22.860;2022-11-15T07:13:25;44.90;;;22.20;;
42384;SDS011;28042;43.986;22.860;2022-11-15T07:15:52;41.05;;;22.45;;
42384;SDS011;28042;43.986;22.860;2022-11-15T07:18:18;50.65;;;27.85;;
42384;SDS011;28042;43.986;22.860;2022-11-15T07:20:43;50.70;;;28.55;;
42384;SDS011;28042;43.986;22.860;2022-11-15T07:23:09;48.85;;;27.85;;
42384;SDS011;28042;43.986;22.860;2022-11-15T07:25:34;49.90;;;29.30;;
42384;SDS011;28042;43.986;22.860;2022-11-15T07:28:00;46.05;;;26.20;;
42384;SDS011;28042;43.986;22.860;2022-11-15T07:30:27;46.78;;;25.77;;
42384;SDS011;28042;43.986;22.860;2022-11-15T07:32:58;42.47;;;23.88;;
42384;SDS011;28042;43.986;22.860;2022-11-15T07:35:25;41.70;;;22.67;;
42384;SDS011;28042;43.986;22.860;2022-11-15T07:40:22;38.97;;;23.52;;
42384;SDS011;28042;43.986;22.860;2022-11-15T07:42:48;31.92;;;19.85;;
42384;SDS011;28042;43.986;22.860;2022-11-15T07:45:20;34.97;;;22.05;;
42384;SDS011;28042;43.986;22.860;2022-11-15T07:47:50;36.60;;;21.90;;
42384;SDS011;28042;43.986;22.860;2022-11-15T07:50:16;40.20;;;23.10;;
42384;SDS011;28042;43.986;22.860;2022-11-15T07:52:42;35.90;;;23.17;;
42384;SDS011;28042;43.986;22.860;2022-11-15T07:55:07;34.42;;;20.15;;
42384;SDS011;28042;43.986;22.860;2022-11-15T07:57:34;29.35;;;19.77;;
42384;SDS011;28042;43.986;22.860;2022-11-15T07:59:59;34.17;;;21.38;;
42384;SDS011;28042;43.986;22.860;2022-11-15T08:02:25;37.05;;;25.00;;
42384;SDS011;28042;43.986;22.860;2022-11-15T08:04:50;34.75;;;23.58;;
42384;SDS011;28042;43.986;22.860;2022-11-15T08:07:15;38.88;;;24.75;;
42384;SDS011;28042;43.986;22.860;2022-11-15T08:09:41;33.25;;;22.50;;
42384;SDS011;28042;43.986;22.860;2022-11-15T08:12:07;35.65;;;23.77;;
42384;SDS011;28042;43.986;22.860;2022-11-15T08:14:32;37.80;;;23.92;;
42384;SDS011;28042;43.986;22.860;2022-11-15T08:16:58;38.80;;;24.33;;
42384;SDS011;28042;43.986;22.860;2022-11-15T08:19:23;33.47;;;22.23;;
42384;SDS011;28042;43.986;22.860;2022-11-15T08:21:49;35.90;;;22.88;;
42384;SDS011;28042;43.986;22.860;2022-11-15T08:24:14;49.22;;;32.00;;
42384;SDS011;28042;43.986;22.860;2022-11-15T08:26:40;35.58;;;21.80;;
42384;SDS011;28042;43.986;22.860;2022-11-15T08:29:06;36.28;;;25.20;;
42384;SDS011;28042;43.986;22.860;2022-11-15T08:31:33;50.60;;;35.13;;
42384;SDS011;28042;43.986;22.860;2022-11-15T08:34:00;35.25;;;23.63;;
42384;SDS011;28042;43.986;22.860;2022-11-15T08:36:25;88.35;;;71.88;;
42384;SDS011;28042;43.986;22.860;2022-11-15T08:38:51;41.38;;;29.08;;
42384;SDS011;28042;43.986;22.860;2022-11-15T08:41:21;37.10;;;25.50;;
42384;SDS011;28042;43.986;22.860;2022-11-15T08:43:54;36.80;;;23.65;;
42384;SDS011;28042;43.986;22.860;2022-11-15T08:46:20;42.28;;;29.23;;
42384;SDS011;28042;43.986;22.860;2022-11-15T08:48:45;37.80;;;26.40;;
42384;SDS011;28042;43.986;22.860;2022-11-15T08:51:11;118.97;;;69.38;;
42384;SDS011;28042;43.986;22.860;2022-11-15T08:53:36;45.70;;;29.85;;
42384;SDS011;28042;43.986;22.860;2022-11-15T08:56:02;41.10;;;26.95;;
42384;SDS011;28042;43.986;22.860;2022-11-15T08:58:28;39.28;;;26.38;;
42384;SDS011;28042;43.986;22.860;2022-11-15T09:00:53;51.97;;;32.45;;
42384;SDS011;28042;43.986;22.860;2022-11-15T09:03:20;53.88;;;39.95;;
42384;SDS011;28042;43.986;22.860;2022-11-15T09:05:45;40.20;;;29.92;;
42384;SDS011;28042;43.986;22.860;2022-11-15T09:08:11;37.53;;;26.58;;
42384;SDS011;28042;43.986;22.860;2022-11-15T09:10:37;33.17;;;22.60;;
42384;SDS011;28042;43.986;22.860;2022-11-15T09:13:03;36.53;;;24.83;;
42384;SDS011;28042;43.986;22.860;2022-11-15T09:15:28;30.70;;;21.50;;
42384;SDS011;28042;43.986;22.860;2022-11-15T09:17:57;30.63;;;21.48;;
42384;SDS011;28042;43.986;22.860;2022-11-15T09:20:23;32.50;;;22.23;;
42384;SDS011;28042;43.986;22.860;2022-11-15T09:22:48;30.52;;;21.00;;
42384;SDS011;28042;43.986;22.860;2022-11-15T09:25:14;30.70;;;21.90;;
42384;SDS011;28042;43.986;22.860;2022-11-15T09:27:39;45.58;;;30.55;;
42384;SDS011;28042;43.986;22.860;2022-11-15T09:30:05;39.33;;;24.80;;
42384;SDS011;28042;43.986;22.860;2022-11-15T09:32:31;41.15;;;25.95;;
42384;SDS011;28042;43.986;22.860;2022-11-15T09:34:56;46.60;;;31.52;;
42384;SDS011;28042;43.986;22.860;2022-11-15T09:37:22;34.08;;;22.17;;
42384;SDS011;28042;43.986;22.860;2022-11-15T09:39:48;42.08;;;27.58;;
42384;SDS011;28042;43.986;22.860;2022-11-15T09:50:27;153.50;;;84.53;;
42384;SDS011;28042;43.986;22.860;2022-11-15T09:53:01;82.07;;;59.83;;
42384;SDS011;28042;43.986;22.860;2022-11-15T09:55:31;66.65;;;46.35;;
42384;SDS011;28042;43.986;22.860;2022-11-15T09:58:10;60.08;;;40.42;;
42384;SDS011;28042;43.986;22.860;2022-11-15T10:00:51;81.90;;;59.83;;
42384;SDS011;28042;43.986;22.860;2022-11-15T10:03:33;29.73;;;21.45;;
42384;SDS011;28042;43.986;22.860;2022-11-15T10:06:02;23.15;;;16.52;;
42384;SDS011;28042;43.986;22.860;2022-11-15T10:11:23;36.03;;;22.70;;
42384;SDS011;28042;43.986;22.860;2022-11-15T10:13:53;27.95;;;17.73;;
42384;SDS011;28042;43.986;22.860;2022-11-15T10:19:22;21.55;;;16.95;;
42384;SDS011;28042;43.986;22.860;2022-11-15T10:24:45;22.55;;;14.23;;
42384;SDS011;28042;43.986;22.860;2022-11-15T10:29:44;18.08;;;13.13;;
42384;SDS011;28042;43.986;22.860;2022-11-15T10:32:13;23.10;;;14.52;;
42384;SDS011;28042;43.986;22.860;2022-11-15T10:34:39;22.25;;;13.60;;
42384;SDS011;28042;43.986;22.860;2022-11-15T10:37:05;26.35;;;13.93;;
42384;SDS011;28042;43.986;22.860;2022-11-15T10:39:31;22.90;;;15.07;;
42384;SDS011;28042;43.986;22.860;2022-11-15T10:41:58;19.27;;;12.98;;
42384;SDS011;28042;43.986;22.860;2022-11-15T10:44:42;22.05;;;13.88;;
42384;SDS011;28042;43.986;22.860;2022-11-15T10:47:25;24.33;;;15.30;;
42384;SDS011;28042;43.986;22.860;2022-11-15T10:49:57;24.20;;;17.27;;
42384;SDS011;28042;43.986;22.860;2022-11-15T10:52:25;21.52;;;13.93;;
42384;SDS011;28042;43.986;22.860;2022-11-15T10:55:02;21.75;;;13.05;;
42384;SDS011;28042;43.986;22.860;2022-11-15T10:57:48;21.02;;;13.13;;
42384;SDS011;28042;43.986;22.860;2022-11-15T11:02:56;19.92;;;12.50;;
42384;SDS011;28042;43.986;22.860;2022-11-15T11:05:30;18.50;;;10.57;;
42384;SDS011;28042;43.986;22.860;2022-11-15T11:07:59;22.63;;;12.50;;
42384;SDS011;28042;43.986;22.860;2022-11-15T11:10:26;15.63;;;11.88;;
42384;SDS011;28042;43.986;22.860;2022-11-15T11:12:53;17.45;;;11.57;;
42384;SDS011;28042;43.986;22.860;2022-11-15T11:15:18;18.38;;;11.85;;
42384;SDS011;28042;43.986;22.860;2022-11-15T11:17:57;16.48;;;11.65;;
42384;SDS011;28042;43.986;22.860;2022-11-15T11:20:38;17.48;;;12.45;;
42384;SDS011;28042;43.986;22.860;2022-11-15T11:25:49;15.95;;;11.70;;
42384;SDS011;28042;43.986;22.860;2022-11-15T11:34:48;19.35;;;13.15;;
42384;SDS011;28042;43.986;22.860;2022-11-15T11:48:14;20.83;;;15.02;;
42384;SDS011;28042;43.986;22.860;2022-11-15T11:50:40;25.20;;;16.20;;
42384;SDS011;28042;43.986;22.860;2022-11-15T11:53:29;22.85;;;16.92;;
42384;SDS011;28042;43.986;22.860;2022-11-15T11:56:03;17.80;;;13.20;;
42384;SDS011;28042;43.986;22.860;2022-11-15T11:58:42;21.98;;;15.45;;
42384;SDS011;28042;43.986;22.860;2022-11-15T12:03:47;25.50;;;17.52;;
42384;SDS011;28042;43.986;22.860;2022-11-15T12:09:03;19.90;;;14.82;;
42384;SDS011;28042;43.986;22.860;2022-11-15T12:11:49;32.92;;;16.20;;
42384;SDS011;28042;43.986;22.860;2022-11-15T12:14:42;23.50;;;13.60;;
42384;SDS011;28042;43.986;22.860;2022-11-15T12:17:09;21.98;;;15.00;;
42384;SDS011;28042;43.986;22.860;2022-11-15T12:19:36;26.00;;;15.38;;
42384;SDS011;28042;43.986;22.860;2022-11-15T12:24:54;24.95;;;15.15;;
42384;SDS011;28042;43.986;22.860;2022-11-15T12:29:58;31.73;;;15.85;;
42384;SDS011;28042;43.986;22.860;2022-11-15T12:32:32;82.90;;;22.55;;
42384;SDS011;28042;43.986;22.860;2022-11-15T12:35:00;31.27;;;18.00;;
42384;SDS011;28042;43.986;22.860;2022-11-15T12:40:05;24.17;;;14.90;;
42384;SDS011;28042;43.986;22.860;2022-11-15T12:44:56;20.42;;;14.88;;
42384;SDS011;28042;43.986;22.860;2022-11-15T12:47:24;26.77;;;17.52;;
42384;SDS011;28042;43.986;22.860;2022-11-15T12:49:51;330.08;;;56.60;;
42384;SDS011;28042;43.986;22.860;2022-11-15T12:52:17;30.88;;;18.75;;
42384;SDS011;28042;43.986;22.860;2022-11-15T12:54:51;34.27;;;20.03;;
42384;SDS011;28042;43.986;22.860;2022-11-15T12:57:31;27.65;;;18.38;;
42384;SDS011;28042;43.986;22.860;2022-11-15T13:02:48;26.60;;;18.38;;
42384;SDS011;28042;43.986;22.860;2022-11-15T13:33:16;25.35;;;16.75;;
42384;SDS011;28042;43.986;22.860;2022-11-15T13:35:51;29.10;;;17.20;;
42384;SDS011;28042;43.986;22.860;2022-11-15T13:38:30;24.58;;;15.93;;
42384;SDS011;28042;43.986;22.860;2022-11-15T13:40:58;25.55;;;17.23;;
42384;SDS011;28042;43.986;22.860;2022-11-15T13:43:26;27.55;;;15.27;;
42384;SDS011;28042;43.986;22.860;2022-11-15T13:48:33;35.08;;;17.75;;
42384;SDS011;28042;43.986;22.860;2022-11-15T13:51:21;40.63;;;18.40;;
42384;SDS011;28042;43.986;22.860;2022-11-15T14:02:35;29.88;;;19.40;;
42384;SDS011;28042;43.986;22.860;2022-11-15T14:05:17;31.40;;;19.35;;
42384;SDS011;28042;43.986;22.860;2022-11-15T14:07:54;37.80;;;19.20;;
42384;SDS011;28042;43.986;22.860;2022-11-15T14:10:35;27.48;;;17.25;;
42384;SDS011;28042;43.986;22.860;2022-11-15T14:13:02;25.48;;;17.27;;
42384;SDS011;28042;43.986;22.860;2022-11-15T14:15:33;26.65;;;17.85;;
42384;SDS011;28042;43.986;22.860;2022-11-15T14:18:00;30.63;;;20.90;;
42384;SDS011;28042;43.986;22.860;2022-11-15T14:20:33;29.92;;;17.50;;
42384;SDS011;28042;43.986;22.860;2022-11-15T14:23:18;36.85;;;17.92;;
42384;SDS011;28042;43.986;22.860;2022-11-15T14:25:52;37.85;;;24.35;;
42384;SDS011;28042;43.986;22.860;2022-11-15T14:30:50;34.63;;;24.00;;
42384;SDS011;28042;43.986;22.860;2022-11-15T14:33:20;34.30;;;22.00;;
42384;SDS011;28042;43.986;22.860;2022-11-15T14:35:46;33.80;;;20.67;;
42384;SDS011;28042;43.986;22.860;2022-11-15T14:38:12;30.10;;;18.58;;
42384;SDS011;28042;43.986;22.860;2022-11-15T14:40:37;29.10;;;19.35;;
42384;SDS011;28042;43.986;22.860;2022-11-15T14:43:03;34.70;;;19.73;;
42384;SDS011;28042;43.986;22.860;2022-11-15T14:45:28;34.88;;;20.45;;
42384;SDS011;28042;43.986;22.860;2022-11-15T14:47:53;33.42;;;20.17;;
42384;SDS011;28042;43.986;22.860;2022-11-15T14:50:19;35.20;;;20.63;;
42384;SDS011;28042;43.986;22.860;2022-11-15T14:52:46;33.63;;;19.65;;
42384;SDS011;28042;43.986;22.860;2022-11-15T14:55:20;28.90;;;18.85;;
42384;SDS011;28042;43.986;22.860;2022-11-15T14:57:49;28.30;;;18.92;;
42384;SDS011;28042;43.986;22.860;2022-11-15T15:00:15;28.35;;;18.90;;
42384;SDS011;28042;43.986;22.860;2022-11-15T15:02:42;28.73;;;19.98;;
42384;SDS011;28042;43.986;22.860;2022-11-15T15:07:45;28.27;;;18.35;;
42384;SDS011;28042;43.986;22.860;2022-11-15T15:10:11;27.83;;;18.55;;
42384;SDS011;28042;43.986;22.860;2022-11-15T15:12:37;26.55;;;17.67;;
42384;SDS011;28042;43.986;22.860;2022-11-15T15:15:04;27.10;;;18.17;;
42384;SDS011;28042;43.986;22.860;2022-11-15T15:17:30;30.02;;;18.52;;
42384;SDS011;28042;43.986;22.860;2022-11-15T15:19:56;28.10;;;17.85;;
42384;SDS011;28042;43.986;22.860;2022-11-15T15:22:21;34.88;;;19.92;;
42384;SDS011;28042;43.986;22.860;2022-11-15T15:24:50;31.20;;;19.02;;
42384;SDS011;28042;43.986;22.860;2022-11-15T15:27:16;21.30;;;15.55;;
42384;SDS011;28042;43.986;22.860;2022-11-15T15:29:41;24.73;;;15.98;;
42384;SDS011;28042;43.986;22.860;2022-11-15T15:32:07;23.00;;;15.75;;
42384;SDS011;28042;43.986;22.860;2022-11-15T15:34:34;23.73;;;14.07;;
42384;SDS011;28042;43.986;22.860;2022-11-15T15:39:51;20.13;;;13.35;;
42384;SDS011;28042;43.986;22.860;2022-11-15T15:42:18;19.70;;;12.20;;
42384;SDS011;28042;43.986;22.860;2022-11-15T15:44:44;21.70;;;12.23;;
42384;SDS011;28042;43.986;22.860;2022-11-15T15:47:16;20.90;;;13.18;;
42384;SDS011;28042;43.986;22.860;2022-11-15T15:49:45;27.90;;;13.27;;
42384;SDS011;28042;43.986;22.860;2022-11-15T15:52:10;31.88;;;14.60;;
42384;SDS011;28042;43.986;22.860;2022-11-15T15:54:36;28.55;;;13.85;;
42384;SDS011;28042;43.986;22.860;2022-11-15T15:57:02;30.30;;;14.13;;
42384;SDS011;28042;43.986;22.860;2022-11-15T15:59:28;18.83;;;12.95;;
42384;SDS011;28042;43.986;22.860;2022-11-15T16:01:54;21.98;;;12.57;;
42384;SDS011;28042;43.986;22.860;2022-11-15T16:04:19;17.65;;;11.85;;
42384;SDS011;28042;43.986;22.860;2022-11-15T16:06:45;15.98;;;11.38;;
42384;SDS011;28042;43.986;22.860;2022-11-15T16:09:14;18.77;;;12.68;;
42384;SDS011;28042;43.986;22.860;2022-11-15T16:11:40;24.42;;;13.48;;
42384;SDS011;28042;43.986;22.860;2022-11-15T16:14:07;26.33;;;12.48;;
42384;SDS011;28042;43.986;22.860;2022-11-15T16:16:33;16.95;;;12.35;;
42384;SDS011;28042;43.986;22.860;2022-11-15T16:19:00;15.65;;;10.63;;
42384;SDS011;28042;43.986;22.860;2022-11-15T16:21:26;19.42;;;11.82;;
42384;SDS011;28042;43.986;22.860;2022-11-15T16:23:52;17.92;;;12.95;;
42384;SDS011;28042;43.986;22.860;2022-11-15T16:26:22;21.50;;;14.50;;
42384;SDS011;28042;43.986;22.860;2022-11-15T16:28:50;20.40;;;13.68;;
42384;SDS011;28042;43.986;22.860;2022-11-15T16:31:16;21.42;;;15.18;;
42384;SDS011;28042;43.986;22.860;2022-11-15T16:33:45;23.83;;;14.73;;
42384;SDS011;28042;43.986;22.860;2022-11-15T16:36:21;16.80;;;12.98;;